sensor_id;sensor_type;location;lat;lon;timestamp;P1;durP1;ratioP1;P2;durP2;ratioP2
33862;SDS011;20158;51.436;-2.742;2022-09-20T00:03:29;2.90;;;2.60;;
33862;SDS011;20158;51.436;-2.742;2022-09-20T00:05:58;5.80;;;3.35;;
33862;SDS011;20158;51.436;-2.742;2022-09-20T00:08:25;3.95;;;3.55;;
33862;SDS011;20158;51.436;-2.742;2022-09-20T00:10:56;8.52;;;3.80;;
33862;SDS011;20158;51.436;-2.742;2022-09-20T00:13:27;3.97;;;2.95;;
33862;SDS011;20158;51.436;-2.742;2022-09-20T00:15:55;3.38;;;2.63;;
33862;SDS011;20158;51.436;-2.742;2022-09-20T00:18:22;4.05;;;2.83;;
33862;SDS011;20158;51.436;-2.742;2022-09-20T00:20:49;4.20;;;2.92;;
33862;SDS011;20158;51.436;-2.742;2022-09-20T00:23:16;4.57;;;2.90;;
33862;SDS011;20158;51.436;-2.742;2022-09-20T00:25:42;4.13;;;3.13;;
33862;SDS011;20158;51.436;-2.742;2022-09-20T00:28:09;3.78;;;3.20;;
33862;SDS011;20158;51.436;-2.742;2022-09-20T00:30:35;4.20;;;3.10;;
33862;SDS011;20158;51.436;-2.742;2022-09-20T00:33:02;4.38;;;2.92;;
33862;SDS011;20158;51.436;-2.742;2022-09-20T00:35:28;3.65;;;2.80;;
33862;SDS011;20158;51.436;-2.742;2022-09-20T00:37:55;3.33;;;2.65;;
33862;SDS011;20158;51.436;-2.742;2022-09-20T00:40:23;3.38;;;2.80;;
33862;SDS011;20158;51.436;-2.742;2022-09-20T00:42:53;3.58;;;3.28;;
33862;SDS011;20158;51.436;-2.742;2022-09-20T00:47:49;4.30;;;3.10;;
33862;SDS011;20158;51.436;-2.742;2022-09-20T00:50:27;3.88;;;2.85;;
33862;SDS011;20158;51.436;-2.742;2022-09-20T00:53:20;3.50;;;3.13;;
33862;SDS011;20158;51.436;-2.742;2022-09-20T00:55:59;3.25;;;2.95;;
33862;SDS011;20158;51.436;-2.742;2022-09-20T00:58:31;4.55;;;3.17;;
33862;SDS011;20158;51.436;-2.742;2022-09-20T01:01:00;3.25;;;2.80;;
33862;SDS011;20158;51.436;-2.742;2022-09-20T01:03:28;5.32;;;3.58;;
33862;SDS011;20158;51.436;-2.742;2022-09-20T01:05:58;3.03;;;2.72;;
33862;SDS011;20158;51.436;-2.742;2022-09-20T01:08:27;3.65;;;2.70;;
33862;SDS011;20158;51.436;-2.742;2022-09-20T01:10:53;4.18;;;3.25;;
33862;SDS011;20158;51.436;-2.742;2022-09-20T01:13:21;2.90;;;2.60;;
33862;SDS011;20158;51.436;-2.742;2022-09-20T01:15:47;3.58;;;3.28;;
33862;SDS011;20158;51.436;-2.742;2022-09-20T01:18:15;3.80;;;2.80;;
33862;SDS011;20158;51.436;-2.742;2022-09-20T01:20:42;3.05;;;2.75;;
33862;SDS011;20158;51.436;-2.742;2022-09-20T01:23:15;3.63;;;2.78;;
33862;SDS011;20158;51.436;-2.742;2022-09-20T01:28:28;4.35;;;3.10;;
33862;SDS011;20158;51.436;-2.742;2022-09-20T01:36:13;3.10;;;2.90;;
33862;SDS011;20158;51.436;-2.742;2022-09-20T01:41:58;3.22;;;2.45;;
33862;SDS011;20158;51.436;-2.742;2022-09-20T01:45:00;4.03;;;3.35;;
33862;SDS011;20158;51.436;-2.742;2022-09-20T01:50:33;3.97;;;2.80;;
33862;SDS011;20158;51.436;-2.742;2022-09-20T01:53:34;3.00;;;2.70;;
33862;SDS011;20158;51.436;-2.742;2022-09-20T02:10:40;2.65;;;2.28;;
33862;SDS011;20158;51.436;-2.742;2022-09-20T02:16:19;2.88;;;2.13;;
33862;SDS011;20158;51.436;-2.742;2022-09-20T02:19:10;4.45;;;2.50;;
33862;SDS011;20158;51.436;-2.742;2022-09-20T02:27:46;4.50;;;2.97;;
33862;SDS011;20158;51.436;-2.742;2022-09-20T02:49:53;3.97;;;2.88;;
33862;SDS011;20158;51.436;-2.742;2022-09-20T02:55:09;4.07;;;2.65;;
33862;SDS011;20158;51.436;-2.742;2022-09-20T02:57:44;3.15;;;2.85;;
33862;SDS011;20158;51.436;-2.742;2022-09-20T03:00:22;6.15;;;2.97;;
33862;SDS011;20158;51.436;-2.742;2022-09-20T03:11:55;2.97;;;2.72;;
33862;SDS011;20158;51.436;-2.742;2022-09-20T03:14:35;3.20;;;2.90;;
33862;SDS011;20158;51.436;-2.742;2022-09-20T03:17:22;3.35;;;2.70;;
33862;SDS011;20158;51.436;-2.742;2022-09-20T03:31:05;5.05;;;3.28;;
33862;SDS011;20158;51.436;-2.742;2022-09-20T03:37:10;3.78;;;3.00;;
33862;SDS011;20158;51.436;-2.742;2022-09-20T03:42:13;3.72;;;3.03;;
33862;SDS011;20158;51.436;-2.742;2022-09-20T03:50:01;2.92;;;2.70;;
33862;SDS011;20158;51.436;-2.742;2022-09-20T03:58:33;4.00;;;2.85;;
33862;SDS011;20158;51.436;-2.742;2022-09-20T04:01:08;4.70;;;3.25;;
33862;SDS011;20158;51.436;-2.742;2022-09-20T04:03:48;3.53;;;2.88;;
33862;SDS011;20158;51.436;-2.742;2022-09-20T04:06:28;4.18;;;3.63;;
33862;SDS011;20158;51.436;-2.742;2022-09-20T04:14:48;3.45;;;2.70;;
33862;SDS011;20158;51.436;-2.742;2022-09-20T04:17:49;4.90;;;3.10;;
33862;SDS011;20158;51.436;-2.742;2022-09-20T04:26:14;3.75;;;2.83;;
33862;SDS011;20158;51.436;-2.742;2022-09-20T04:29:02;4.72;;;3.13;;
33862;SDS011;20158;51.436;-2.742;2022-09-20T04:32:13;3.28;;;2.97;;
33862;SDS011;20158;51.436;-2.742;2022-09-20T04:35:22;4.57;;;4.15;;
33862;SDS011;20158;51.436;-2.742;2022-09-20T04:38:11;2.97;;;2.67;;
33862;SDS011;20158;51.436;-2.742;2022-09-20T04:52:01;2.25;;;2.05;;
33862;SDS011;20158;51.436;-2.742;2022-09-20T05:35:59;3.30;;;3.00;;
33862;SDS011;20158;51.436;-2.742;2022-09-20T05:47:09;2.80;;;2.50;;
33862;SDS011;20158;51.436;-2.742;2022-09-20T05:49:57;3.03;;;2.67;;
33862;SDS011;20158;51.436;-2.742;2022-09-20T05:52:55;3.00;;;2.70;;
33862;SDS011;20158;51.436;-2.742;2022-09-20T06:01:38;3.05;;;2.28;;
33862;SDS011;20158;51.436;-2.742;2022-09-20T06:04:18;3.67;;;2.50;;
33862;SDS011;20158;51.436;-2.742;2022-09-20T06:09:29;2.35;;;2.15;;
33862;SDS011;20158;51.436;-2.742;2022-09-20T06:15:15;2.75;;;2.45;;
33862;SDS011;20158;51.436;-2.742;2022-09-20T06:20:54;3.83;;;2.92;;
33862;SDS011;20158;51.436;-2.742;2022-09-20T06:23:32;2.83;;;2.58;;
33862;SDS011;20158;51.436;-2.742;2022-09-20T06:26:01;4.03;;;2.92;;
33862;SDS011;20158;51.436;-2.742;2022-09-20T06:28:40;2.95;;;2.65;;
33862;SDS011;20158;51.436;-2.742;2022-09-20T06:31:11;2.72;;;2.50;;
33862;SDS011;20158;51.436;-2.742;2022-09-20T06:36:33;2.63;;;2.30;;
33862;SDS011;20158;51.436;-2.742;2022-09-20T06:42:10;2.53;;;2.33;;
33862;SDS011;20158;51.436;-2.742;2022-09-20T06:44:37;2.65;;;2.35;;
33862;SDS011;20158;51.436;-2.742;2022-09-20T06:47:06;3.08;;;2.63;;
33862;SDS011;20158;51.436;-2.742;2022-09-20T06:49:34;2.60;;;2.40;;
33862;SDS011;20158;51.436;-2.742;2022-09-20T06:52:03;2.55;;;2.28;;
33862;SDS011;20158;51.436;-2.742;2022-09-20T06:54:35;3.03;;;1.98;;
33862;SDS011;20158;51.436;-2.742;2022-09-20T06:57:02;2.75;;;2.50;;
33862;SDS011;20158;51.436;-2.742;2022-09-20T06:59:30;3.15;;;2.72;;
33862;SDS011;20158;51.436;-2.742;2022-09-20T07:01:56;2.50;;;2.30;;
33862;SDS011;20158;51.436;-2.742;2022-09-20T07:04:22;3.30;;;3.03;;
33862;SDS011;20158;51.436;-2.742;2022-09-20T07:06:51;3.33;;;2.25;;
33862;SDS011;20158;51.436;-2.742;2022-09-20T07:09:25;2.75;;;2.55;;
33862;SDS011;20158;51.436;-2.742;2022-09-20T07:11:50;2.90;;;2.60;;
33862;SDS011;20158;51.436;-2.742;2022-09-20T07:14:16;3.95;;;2.80;;
33862;SDS011;20158;51.436;-2.742;2022-09-20T07:16:43;3.03;;;2.63;;
33862;SDS011;20158;51.436;-2.742;2022-09-20T07:19:09;3.00;;;2.70;;
33862;SDS011;20158;51.436;-2.742;2022-09-20T07:21:36;3.30;;;2.83;;
33862;SDS011;20158;51.436;-2.742;2022-09-20T07:24:02;3.17;;;2.75;;
33862;SDS011;20158;51.436;-2.742;2022-09-20T07:26:28;3.35;;;2.78;;
33862;SDS011;20158;51.436;-2.742;2022-09-20T07:28:55;2.47;;;2.15;;
33862;SDS011;20158;51.436;-2.742;2022-09-20T07:31:23;3.53;;;2.40;;
33862;SDS011;20158;51.436;-2.742;2022-09-20T07:33:51;3.15;;;2.70;;
33862;SDS011;20158;51.436;-2.742;2022-09-20T07:36:17;3.78;;;2.35;;
33862;SDS011;20158;51.436;-2.742;2022-09-20T07:38:50;2.80;;;2.60;;
33862;SDS011;20158;51.436;-2.742;2022-09-20T07:41:19;3.08;;;2.85;;
33862;SDS011;20158;51.436;-2.742;2022-09-20T07:43:46;3.55;;;2.75;;
33862;SDS011;20158;51.436;-2.742;2022-09-20T07:46:15;3.15;;;2.78;;
33862;SDS011;20158;51.436;-2.742;2022-09-20T07:48:40;2.45;;;2.25;;
33862;SDS011;20158;51.436;-2.742;2022-09-20T07:51:08;2.70;;;2.50;;
33862;SDS011;20158;51.436;-2.742;2022-09-20T07:53:35;2.90;;;2.47;;
33862;SDS011;20158;51.436;-2.742;2022-09-20T07:56:06;5.55;;;3.10;;
33862;SDS011;20158;51.436;-2.742;2022-09-20T07:58:37;3.30;;;2.83;;
33862;SDS011;20158;51.436;-2.742;2022-09-20T08:01:07;3.13;;;2.83;;
33862;SDS011;20158;51.436;-2.742;2022-09-20T08:03:35;2.97;;;2.78;;
33862;SDS011;20158;51.436;-2.742;2022-09-20T08:06:05;3.63;;;2.97;;
33862;SDS011;20158;51.436;-2.742;2022-09-20T08:08:34;4.63;;;2.53;;
33862;SDS011;20158;51.436;-2.742;2022-09-20T08:11:04;4.10;;;3.00;;
33862;SDS011;20158;51.436;-2.742;2022-09-20T08:13:35;5.30;;;3.17;;
33862;SDS011;20158;51.436;-2.742;2022-09-20T08:16:07;4.57;;;3.47;;
33862;SDS011;20158;51.436;-2.742;2022-09-20T08:18:36;3.42;;;3.13;;
33862;SDS011;20158;51.436;-2.742;2022-09-20T08:21:06;3.50;;;3.17;;
33862;SDS011;20158;51.436;-2.742;2022-09-20T08:23:36;5.13;;;3.60;;
33862;SDS011;20158;51.436;-2.742;2022-09-20T08:26:05;3.60;;;3.25;;
33862;SDS011;20158;51.436;-2.742;2022-09-20T08:28:32;3.33;;;3.03;;
33862;SDS011;20158;51.436;-2.742;2022-09-20T08:33:41;3.13;;;2.83;;
33862;SDS011;20158;51.436;-2.742;2022-09-20T08:36:09;3.97;;;3.58;;
33862;SDS011;20158;51.436;-2.742;2022-09-20T08:38:37;4.15;;;3.45;;
33862;SDS011;20158;51.436;-2.742;2022-09-20T08:43:40;4.60;;;3.60;;
33862;SDS011;20158;51.436;-2.742;2022-09-20T08:46:12;5.63;;;4.13;;
33862;SDS011;20158;51.436;-2.742;2022-09-20T08:48:41;4.80;;;3.85;;
33862;SDS011;20158;51.436;-2.742;2022-09-20T08:51:10;3.75;;;3.42;;
33862;SDS011;20158;51.436;-2.742;2022-09-20T08:53:41;6.47;;;3.58;;
33862;SDS011;20158;51.436;-2.742;2022-09-20T08:56:12;3.65;;;3.35;;
33862;SDS011;20158;51.436;-2.742;2022-09-20T08:58:38;5.20;;;3.85;;
33862;SDS011;20158;51.436;-2.742;2022-09-20T09:01:04;6.13;;;3.90;;
33862;SDS011;20158;51.436;-2.742;2022-09-20T09:03:31;6.07;;;4.32;;
33862;SDS011;20158;51.436;-2.742;2022-09-20T09:05:58;4.68;;;4.25;;
33862;SDS011;20158;51.436;-2.742;2022-09-20T09:11:10;5.38;;;4.40;;
33862;SDS011;20158;51.436;-2.742;2022-09-20T09:13:51;5.28;;;4.43;;
33862;SDS011;20158;51.436;-2.742;2022-09-20T09:16:20;6.72;;;5.30;;
33862;SDS011;20158;51.436;-2.742;2022-09-20T09:18:48;6.63;;;5.20;;
33862;SDS011;20158;51.436;-2.742;2022-09-20T09:21:17;6.30;;;5.50;;
33862;SDS011;20158;51.436;-2.742;2022-09-20T09:23:51;5.72;;;4.40;;
33862;SDS011;20158;51.436;-2.742;2022-09-20T09:26:37;5.40;;;4.65;;
33862;SDS011;20158;51.436;-2.742;2022-09-20T09:31:42;6.85;;;5.65;;
33862;SDS011;20158;51.436;-2.742;2022-09-20T09:36:56;11.05;;;6.75;;
33862;SDS011;20158;51.436;-2.742;2022-09-20T09:39:29;7.05;;;6.35;;
33862;SDS011;20158;51.436;-2.742;2022-09-20T09:41:57;7.40;;;5.93;;
33862;SDS011;20158;51.436;-2.742;2022-09-20T09:44:31;6.68;;;5.97;;
33862;SDS011;20158;51.436;-2.742;2022-09-20T09:47:01;7.05;;;6.35;;
33862;SDS011;20158;51.436;-2.742;2022-09-20T09:49:28;6.65;;;5.95;;
33862;SDS011;20158;51.436;-2.742;2022-09-20T09:52:00;6.18;;;5.57;;
33862;SDS011;20158;51.436;-2.742;2022-09-20T09:54:39;7.15;;;6.45;;
33862;SDS011;20158;51.436;-2.742;2022-09-20T09:57:17;6.60;;;5.40;;
33862;SDS011;20158;51.436;-2.742;2022-09-20T10:05:36;6.00;;;5.30;;
33862;SDS011;20158;51.436;-2.742;2022-09-20T10:16:10;6.40;;;5.30;;
33862;SDS011;20158;51.436;-2.742;2022-09-20T10:30:01;4.78;;;3.85;;
33862;SDS011;20158;51.436;-2.742;2022-09-20T10:38:17;5.22;;;3.70;;
33862;SDS011;20158;51.436;-2.742;2022-09-20T10:44:26;5.05;;;4.22;;
33862;SDS011;20158;51.436;-2.742;2022-09-20T11:12:42;4.30;;;3.90;;
33862;SDS011;20158;51.436;-2.742;2022-09-20T11:15:23;4.18;;;3.78;;
33862;SDS011;20158;51.436;-2.742;2022-09-20T11:18:57;5.20;;;4.00;;
33862;SDS011;20158;51.436;-2.742;2022-09-20T11:27:13;3.75;;;3.45;;
33862;SDS011;20158;51.436;-2.742;2022-09-20T11:29:49;3.88;;;3.47;;
33862;SDS011;20158;51.436;-2.742;2022-09-20T11:35:00;4.28;;;3.55;;
33862;SDS011;20158;51.436;-2.742;2022-09-20T11:37:46;4.40;;;3.35;;
33862;SDS011;20158;51.436;-2.742;2022-09-20T11:40:36;4.40;;;3.92;;
33862;SDS011;20158;51.436;-2.742;2022-09-20T11:43:05;3.50;;;3.20;;
33862;SDS011;20158;51.436;-2.742;2022-09-20T11:45:36;3.13;;;2.90;;
33862;SDS011;20158;51.436;-2.742;2022-09-20T11:50:49;3.58;;;3.28;;
33862;SDS011;20158;51.436;-2.742;2022-09-20T11:56:29;4.45;;;3.67;;
33862;SDS011;20158;51.436;-2.742;2022-09-20T11:58:58;4.60;;;3.42;;
33862;SDS011;20158;51.436;-2.742;2022-09-20T12:01:28;3.70;;;3.40;;
33862;SDS011;20158;51.436;-2.742;2022-09-20T12:04:17;3.88;;;3.42;;
33862;SDS011;20158;51.436;-2.742;2022-09-20T12:10:06;3.80;;;3.50;;
33862;SDS011;20158;51.436;-2.742;2022-09-20T12:12:48;2.72;;;2.53;;
33862;SDS011;20158;51.436;-2.742;2022-09-20T12:15:22;3.28;;;2.70;;
33862;SDS011;20158;51.436;-2.742;2022-09-20T12:26:07;3.00;;;2.50;;
33862;SDS011;20158;51.436;-2.742;2022-09-20T12:28:39;2.58;;;2.38;;
33862;SDS011;20158;51.436;-2.742;2022-09-20T12:34:03;5.55;;;2.17;;
33862;SDS011;20158;51.436;-2.742;2022-09-20T12:36:38;2.15;;;1.85;;
33862;SDS011;20158;51.436;-2.742;2022-09-20T12:57:52;1.52;;;1.42;;
33862;SDS011;20158;51.436;-2.742;2022-09-20T13:05:43;3.60;;;3.13;;
33862;SDS011;20158;51.436;-2.742;2022-09-20T13:10:42;2.58;;;2.38;;
33862;SDS011;20158;51.436;-2.742;2022-09-20T13:13:25;3.28;;;2.53;;
33862;SDS011;20158;51.436;-2.742;2022-09-20T13:15:55;3.67;;;2.95;;
33862;SDS011;20158;51.436;-2.742;2022-09-20T13:18:23;3.95;;;2.60;;
33862;SDS011;20158;51.436;-2.742;2022-09-20T13:20:52;2.88;;;2.67;;
33862;SDS011;20158;51.436;-2.742;2022-09-20T13:23:22;3.22;;;2.75;;
33862;SDS011;20158;51.436;-2.742;2022-09-20T13:25:52;3.13;;;2.92;;
33862;SDS011;20158;51.436;-2.742;2022-09-20T13:29:04;3.25;;;2.95;;
33862;SDS011;20158;51.436;-2.742;2022-09-20T13:33:49;3.28;;;2.90;;
33862;SDS011;20158;51.436;-2.742;2022-09-20T13:36:18;3.83;;;3.20;;
33862;SDS011;20158;51.436;-2.742;2022-09-20T13:38:51;3.53;;;2.70;;
33862;SDS011;20158;51.436;-2.742;2022-09-20T13:41:19;4.20;;;3.80;;
33862;SDS011;20158;51.436;-2.742;2022-09-20T13:43:47;5.65;;;3.25;;
33862;SDS011;20158;51.436;-2.742;2022-09-20T13:46:23;3.05;;;2.67;;
33862;SDS011;20158;51.436;-2.742;2022-09-20T13:48:57;3.40;;;2.90;;
33862;SDS011;20158;51.436;-2.742;2022-09-20T13:51:33;2.80;;;2.60;;
33862;SDS011;20158;51.436;-2.742;2022-09-20T13:54:16;2.65;;;2.40;;
33862;SDS011;20158;51.436;-2.742;2022-09-20T13:56:58;2.70;;;2.42;;
33862;SDS011;20158;51.436;-2.742;2022-09-20T13:59:31;2.55;;;2.35;;
33862;SDS011;20158;51.436;-2.742;2022-09-20T14:02:00;4.25;;;2.40;;
33862;SDS011;20158;51.436;-2.742;2022-09-20T14:04:28;2.60;;;2.40;;
33862;SDS011;20158;51.436;-2.742;2022-09-20T14:06:56;3.42;;;2.92;;
33862;SDS011;20158;51.436;-2.742;2022-09-20T14:09:28;3.58;;;3.22;;
33862;SDS011;20158;51.436;-2.742;2022-09-20T14:11:58;5.93;;;2.78;;
33862;SDS011;20158;51.436;-2.742;2022-09-20T14:14:25;2.85;;;2.60;;
33862;SDS011;20158;51.436;-2.742;2022-09-20T14:16:53;2.67;;;2.47;;
33862;SDS011;20158;51.436;-2.742;2022-09-20T14:19:22;2.88;;;2.47;;
33862;SDS011;20158;51.436;-2.742;2022-09-20T14:21:58;2.50;;;2.30;;
33862;SDS011;20158;51.436;-2.742;2022-09-20T14:24:29;2.85;;;2.60;;
33862;SDS011;20158;51.436;-2.742;2022-09-20T14:27:04;4.10;;;3.17;;
33862;SDS011;20158;51.436;-2.742;2022-09-20T14:32:09;2.88;;;2.25;;
33862;SDS011;20158;51.436;-2.742;2022-09-20T14:34:44;3.78;;;2.67;;
33862;SDS011;20158;51.436;-2.742;2022-09-20T14:40:13;2.90;;;2.63;;
33862;SDS011;20158;51.436;-2.742;2022-09-20T14:42:48;1.92;;;1.70;;
33862;SDS011;20158;51.436;-2.742;2022-09-20T14:45:37;2.55;;;2.35;;
33862;SDS011;20158;51.436;-2.742;2022-09-20T14:50:40;3.45;;;2.80;;
33862;SDS011;20158;51.436;-2.742;2022-09-20T14:58:21;2.10;;;1.90;;
33862;SDS011;20158;51.436;-2.742;2022-09-20T15:01:03;2.42;;;2.22;;
33862;SDS011;20158;51.436;-2.742;2022-09-20T15:03:47;2.65;;;2.15;;
33862;SDS011;20158;51.436;-2.742;2022-09-20T15:06:15;2.42;;;2.22;;
33862;SDS011;20158;51.436;-2.742;2022-09-20T15:08:41;2.35;;;2.15;;
33862;SDS011;20158;51.436;-2.742;2022-09-20T15:11:12;2.22;;;2.03;;
33862;SDS011;20158;51.436;-2.742;2022-09-20T15:13:42;2.85;;;2.22;;
33862;SDS011;20158;51.436;-2.742;2022-09-20T15:16:13;2.70;;;2.22;;
33862;SDS011;20158;51.436;-2.742;2022-09-20T15:18:41;3.30;;;2.55;;
33862;SDS011;20158;51.436;-2.742;2022-09-20T15:21:08;2.85;;;2.50;;
33862;SDS011;20158;51.436;-2.742;2022-09-20T15:23:38;2.88;;;2.30;;
33862;SDS011;20158;51.436;-2.742;2022-09-20T15:26:04;2.13;;;2.03;;
33862;SDS011;20158;51.436;-2.742;2022-09-20T15:28:33;5.57;;;3.03;;
33862;SDS011;20158;51.436;-2.742;2022-09-20T15:31:00;4.80;;;2.78;;
33862;SDS011;20158;51.436;-2.742;2022-09-20T15:33:28;2.72;;;2.53;;
33862;SDS011;20158;51.436;-2.742;2022-09-20T15:35:56;3.08;;;2.30;;
33862;SDS011;20158;51.436;-2.742;2022-09-20T15:38:23;2.55;;;2.33;;
33862;SDS011;20158;51.436;-2.742;2022-09-20T15:40:51;2.50;;;2.30;;
33862;SDS011;20158;51.436;-2.742;2022-09-20T15:43:18;2.72;;;2.47;;
33862;SDS011;20158;51.436;-2.742;2022-09-20T15:45:59;4.35;;;2.90;;
33862;SDS011;20158;51.436;-2.742;2022-09-20T15:48:40;3.15;;;2.08;;
33862;SDS011;20158;51.436;-2.742;2022-09-20T15:51:08;4.60;;;2.95;;
33862;SDS011;20158;51.436;-2.742;2022-09-20T15:53:40;3.53;;;2.40;;
33862;SDS011;20158;51.436;-2.742;2022-09-20T15:58:51;4.90;;;2.45;;
33862;SDS011;20158;51.436;-2.742;2022-09-20T16:01:26;3.65;;;2.83;;
33862;SDS011;20158;51.436;-2.742;2022-09-20T16:03:56;2.33;;;2.13;;
33862;SDS011;20158;51.436;-2.742;2022-09-20T16:06:22;2.88;;;2.13;;
33862;SDS011;20158;51.436;-2.742;2022-09-20T16:08:49;3.67;;;2.70;;
33862;SDS011;20158;51.436;-2.742;2022-09-20T16:11:17;2.70;;;2.50;;
33862;SDS011;20158;51.436;-2.742;2022-09-20T16:13:51;2.88;;;2.20;;
33862;SDS011;20158;51.436;-2.742;2022-09-20T16:16:22;2.50;;;2.30;;
33862;SDS011;20158;51.436;-2.742;2022-09-20T16:18:48;2.90;;;2.70;;
33862;SDS011;20158;51.436;-2.742;2022-09-20T16:21:33;2.63;;;2.38;;
33862;SDS011;20158;51.436;-2.742;2022-09-20T16:24:00;2.28;;;2.08;;
33862;SDS011;20158;51.436;-2.742;2022-09-20T16:26:27;2.90;;;2.10;;
33862;SDS011;20158;51.436;-2.742;2022-09-20T16:28:55;2.97;;;2.78;;
33862;SDS011;20158;51.436;-2.742;2022-09-20T16:36:53;3.00;;;2.80;;
33862;SDS011;20158;51.436;-2.742;2022-09-20T16:39:22;3.38;;;2.47;;
33862;SDS011;20158;51.436;-2.742;2022-09-20T16:41:52;3.00;;;2.80;;
33862;SDS011;20158;51.436;-2.742;2022-09-20T16:44:25;3.03;;;2.72;;
33862;SDS011;20158;51.436;-2.742;2022-09-20T16:46:51;2.90;;;2.60;;
33862;SDS011;20158;51.436;-2.742;2022-09-20T16:49:17;2.80;;;2.60;;
33862;SDS011;20158;51.436;-2.742;2022-09-20T16:51:43;2.90;;;2.70;;
33862;SDS011;20158;51.436;-2.742;2022-09-20T16:54:14;2.80;;;2.60;;
33862;SDS011;20158;51.436;-2.742;2022-09-20T16:56:43;2.97;;;2.70;;
33862;SDS011;20158;51.436;-2.742;2022-09-20T16:59:12;2.47;;;2.22;;
33862;SDS011;20158;51.436;-2.742;2022-09-20T17:01:41;2.78;;;2.58;;
33862;SDS011;20158;51.436;-2.742;2022-09-20T17:04:08;3.33;;;2.85;;
33862;SDS011;20158;51.436;-2.742;2022-09-20T17:06:36;2.95;;;2.75;;
33862;SDS011;20158;51.436;-2.742;2022-09-20T17:09:03;2.75;;;2.53;;
33862;SDS011;20158;51.436;-2.742;2022-09-20T17:11:34;3.03;;;2.67;;
33862;SDS011;20158;51.436;-2.742;2022-09-20T17:14:08;3.45;;;3.13;;
33862;SDS011;20158;51.436;-2.742;2022-09-20T17:16:37;8.38;;;4.05;;
33862;SDS011;20158;51.436;-2.742;2022-09-20T17:19:06;4.72;;;3.25;;
33862;SDS011;20158;51.436;-2.742;2022-09-20T17:21:34;4.60;;;3.17;;
33862;SDS011;20158;51.436;-2.742;2022-09-20T17:24:05;4.43;;;2.33;;
33862;SDS011;20158;51.436;-2.742;2022-09-20T17:26:33;7.28;;;3.15;;
33862;SDS011;20158;51.436;-2.742;2022-09-20T17:29:02;2.85;;;2.55;;
33862;SDS011;20158;51.436;-2.742;2022-09-20T17:31:34;3.63;;;3.08;;
33862;SDS011;20158;51.436;-2.742;2022-09-20T17:34:07;3.40;;;2.47;;
33862;SDS011;20158;51.436;-2.742;2022-09-20T17:36:35;3.20;;;2.50;;
33862;SDS011;20158;51.436;-2.742;2022-09-20T17:39:08;4.40;;;2.85;;
33862;SDS011;20158;51.436;-2.742;2022-09-20T17:41:37;3.50;;;2.70;;
33862;SDS011;20158;51.436;-2.742;2022-09-20T17:44:04;3.65;;;2.65;;
33862;SDS011;20158;51.436;-2.742;2022-09-20T17:46:33;3.15;;;2.53;;
33862;SDS011;20158;51.436;-2.742;2022-09-20T17:49:02;3.83;;;2.42;;
33862;SDS011;20158;51.436;-2.742;2022-09-20T17:51:35;3.45;;;3.15;;
33862;SDS011;20158;51.436;-2.742;2022-09-20T17:54:03;3.10;;;2.80;;
33862;SDS011;20158;51.436;-2.742;2022-09-20T17:56:29;5.35;;;2.60;;
33862;SDS011;20158;51.436;-2.742;2022-09-20T17:58:57;3.10;;;2.67;;
33862;SDS011;20158;51.436;-2.742;2022-09-20T18:01:24;4.10;;;2.80;;
33862;SDS011;20158;51.436;-2.742;2022-09-20T18:03:52;3.50;;;2.70;;
33862;SDS011;20158;51.436;-2.742;2022-09-20T18:06:27;3.50;;;2.72;;
33862;SDS011;20158;51.436;-2.742;2022-09-20T18:08:58;4.87;;;2.57;;
33862;SDS011;20158;51.436;-2.742;2022-09-20T18:11:31;2.75;;;2.50;;
33862;SDS011;20158;51.436;-2.742;2022-09-20T18:14:07;2.45;;;2.25;;
33862;SDS011;20158;51.436;-2.742;2022-09-20T18:16:34;3.25;;;2.92;;
33862;SDS011;20158;51.436;-2.742;2022-09-20T18:19:02;3.97;;;2.65;;
33862;SDS011;20158;51.436;-2.742;2022-09-20T18:21:30;3.38;;;2.88;;
33862;SDS011;20158;51.436;-2.742;2022-09-20T18:23:59;3.17;;;2.88;;
33862;SDS011;20158;51.436;-2.742;2022-09-20T18:26:29;3.17;;;2.78;;
33862;SDS011;20158;51.436;-2.742;2022-09-20T18:31:25;4.25;;;3.00;;
33862;SDS011;20158;51.436;-2.742;2022-09-20T18:33:53;3.42;;;3.10;;
33862;SDS011;20158;51.436;-2.742;2022-09-20T18:36:20;2.90;;;2.60;;
33862;SDS011;20158;51.436;-2.742;2022-09-20T18:38:48;3.33;;;2.83;;
33862;SDS011;20158;51.436;-2.742;2022-09-20T18:41:19;3.38;;;3.03;;
33862;SDS011;20158;51.436;-2.742;2022-09-20T18:43:48;3.38;;;2.70;;
33862;SDS011;20158;51.436;-2.742;2022-09-20T18:46:14;3.15;;;2.85;;
33862;SDS011;20158;51.436;-2.742;2022-09-20T18:48:40;3.22;;;2.65;;
33862;SDS011;20158;51.436;-2.742;2022-09-20T18:51:07;2.80;;;2.60;;
33862;SDS011;20158;51.436;-2.742;2022-09-20T18:53:34;2.97;;;2.67;;
33862;SDS011;20158;51.436;-2.742;2022-09-20T18:56:44;4.40;;;2.80;;
33862;SDS011;20158;51.436;-2.742;2022-09-20T18:58:59;3.00;;;2.70;;
33862;SDS011;20158;51.436;-2.742;2022-09-20T19:06:50;3.15;;;2.88;;
33862;SDS011;20158;51.436;-2.742;2022-09-20T19:12:32;3.53;;;2.90;;
33862;SDS011;20158;51.436;-2.742;2022-09-20T19:18:00;3.35;;;3.05;;
33862;SDS011;20158;51.436;-2.742;2022-09-20T19:20:36;6.32;;;3.08;;
33862;SDS011;20158;51.436;-2.742;2022-09-20T19:23:19;3.33;;;2.90;;
33862;SDS011;20158;51.436;-2.742;2022-09-20T19:26:02;3.45;;;3.15;;
33862;SDS011;20158;51.436;-2.742;2022-09-20T19:28:46;2.90;;;2.67;;
33862;SDS011;20158;51.436;-2.742;2022-09-20T19:31:47;3.33;;;2.85;;
33862;SDS011;20158;51.436;-2.742;2022-09-20T19:34:09;4.82;;;4.18;;
33862;SDS011;20158;51.436;-2.742;2022-09-20T19:36:49;3.50;;;3.20;;
33862;SDS011;20158;51.436;-2.742;2022-09-20T19:50:35;3.67;;;3.38;;
33862;SDS011;20158;51.436;-2.742;2022-09-20T19:53:09;3.10;;;2.80;;
33862;SDS011;20158;51.436;-2.742;2022-09-20T19:55:39;3.35;;;2.88;;
33862;SDS011;20158;51.436;-2.742;2022-09-20T19:58:12;3.97;;;3.50;;
33862;SDS011;20158;51.436;-2.742;2022-09-20T20:00:38;3.75;;;3.38;;
33862;SDS011;20158;51.436;-2.742;2022-09-20T20:03:08;3.92;;;3.63;;
33862;SDS011;20158;51.436;-2.742;2022-09-20T20:05:44;3.30;;;2.70;;
33862;SDS011;20158;51.436;-2.742;2022-09-20T20:08:33;4.20;;;3.35;;
33862;SDS011;20158;51.436;-2.742;2022-09-20T20:14:16;3.92;;;2.80;;
33862;SDS011;20158;51.436;-2.742;2022-09-20T20:27:59;3.70;;;3.35;;
33862;SDS011;20158;51.436;-2.742;2022-09-20T20:30:25;3.60;;;3.25;;
33862;SDS011;20158;51.436;-2.742;2022-09-20T20:32:56;4.40;;;3.42;;
33862;SDS011;20158;51.436;-2.742;2022-09-20T20:35:22;3.20;;;2.90;;
33862;SDS011;20158;51.436;-2.742;2022-09-20T20:37:50;4.50;;;3.50;;
33862;SDS011;20158;51.436;-2.742;2022-09-20T20:40:16;4.00;;;3.67;;
33862;SDS011;20158;51.436;-2.742;2022-09-20T20:42:42;3.38;;;2.97;;
33862;SDS011;20158;51.436;-2.742;2022-09-20T20:45:10;4.30;;;3.75;;
33862;SDS011;20158;51.436;-2.742;2022-09-20T20:47:36;3.63;;;3.33;;
33862;SDS011;20158;51.436;-2.742;2022-09-20T20:50:07;4.18;;;3.38;;
33862;SDS011;20158;51.436;-2.742;2022-09-20T20:52:37;3.88;;;3.50;;
33862;SDS011;20158;51.436;-2.742;2022-09-20T20:55:04;4.30;;;3.03;;
33862;SDS011;20158;51.436;-2.742;2022-09-20T20:57:31;3.95;;;3.55;;
33862;SDS011;20158;51.436;-2.742;2022-09-20T20:59:58;3.40;;;3.10;;
33862;SDS011;20158;51.436;-2.742;2022-09-20T21:02:24;3.53;;;3.22;;
33862;SDS011;20158;51.436;-2.742;2022-09-20T21:04:50;3.55;;;3.25;;
33862;SDS011;20158;51.436;-2.742;2022-09-20T21:07:19;3.30;;;3.00;;
33862;SDS011;20158;51.436;-2.742;2022-09-20T21:09:46;4.03;;;3.13;;
33862;SDS011;20158;51.436;-2.742;2022-09-20T21:12:12;3.55;;;3.25;;
33862;SDS011;20158;51.436;-2.742;2022-09-20T21:14:42;4.40;;;3.35;;
33862;SDS011;20158;51.436;-2.742;2022-09-20T21:17:08;3.45;;;3.15;;
33862;SDS011;20158;51.436;-2.742;2022-09-20T21:19:35;3.05;;;2.85;;
33862;SDS011;20158;51.436;-2.742;2022-09-20T21:22:00;3.72;;;3.03;;
33862;SDS011;20158;51.436;-2.742;2022-09-20T21:24:26;3.30;;;3.00;;
33862;SDS011;20158;51.436;-2.742;2022-09-20T21:26:52;3.67;;;2.97;;
33862;SDS011;20158;51.436;-2.742;2022-09-20T21:29:18;4.28;;;3.08;;